Decoded Metar for YBCS (CAIRNS in AUSTRALIA) (IATA:CNS) | Meteo·Mobile Aviation Weather
aviador You're here:

YBCS Decoded Metar

CAIRNS in AUSTRALIA
Report Time2019-05-25 23:30:00
UTC Time2019-05-25 23:55:29
Flight Rules vfr VFR
Wind140° at 11 kt
W.Decomp.*RWY 12: 10.7 kt HW 2.5 kt RCW
RWY 15: 10.5 kt HW 3.2 kt LCW
Visibility9999 m
Phenomena:N/A
Clouds:Broken 058 Hf
Expected CloudBase > 1,200 ft AGL from Temp-Dew spread
Ceiling5,800 ft
Temp23°C (ISA +8)
Dew Point20°C (83% RH)
AAT22.7°C
QNH1017 hPa
Density Alt1,132 ft
Elevation23 ft
Report Wrong Elevation
Raw Report
YBCS 252330Z AUTO 14011KT 9999 // BKN058 23/20 Q1017 RMK
RF00.0/000.0 NOSIG=

Extra information for YBCS:More info

Metar Taf Metar & Taf Last 4 Metars F.Rules Stats Wind Profile Meteogram Temp Stats Airport Information Weather charts Add Link Nearby VenuesMetar ALERT Operation Metar Decoded Social comments